Time;durP1;ratioP1;P1;durP2;ratioP2;P2;SDS_P1;SDS_P2;PMS_P1;PMS_P2;Temp;Humidity;BMP_temperature;BMP_pressure;BME280_temperature;BME280_humidity;BME280_pressure;Samples;Min_cycle;Max_cycle;Signal;HPM_P1;HPM_P2
2022/10/27 00:00:32;;;;;;;45.67;42.15;;;;;;;7.75;100.00;102039.97;6129733;23;20026;-95
2022/10/27 00:03:04;;;;;;;41.00;38.30;;;;;;;7.69;100.00;102037.94;6151177;23;20002;-95
2022/10/27 00:05:35;;;;;;;45.93;42.47;;;;;;;7.81;100.00;102043.81;6152068;23;20022;-95
2022/10/27 00:08:06;;;;;;;43.03;39.72;;;;;;;7.31;100.00;102041.75;6153927;23;20260;-94
2022/10/27 00:10:34;;;;;;;48.15;44.42;;;;;;;7.59;100.00;102042.47;6153953;23;20018;-94
2022/10/27 00:13:08;;;;;;;46.95;43.72;;;;;;;7.55;100.00;102039.31;6153582;23;20014;-94
2022/10/27 00:15:44;;;;;;;45.28;42.20;;;;;;;7.51;100.00;102042.44;6153540;23;20029;-94
2022/10/27 00:21:09;;;;;;;44.70;41.65;;;;;;;7.46;100.00;102050.81;6152462;23;20062;-94
2022/10/27 00:23:41;;;;;;;48.08;44.50;;;;;;;7.51;100.00;102043.25;6153168;23;20022;-94
2022/10/27 00:26:13;;;;;;;44.43;41.20;;;;;;;7.38;100.00;102041.97;6152987;23;20046;-93
2022/10/27 00:28:51;;;;;;;50.83;46.92;;;;;;;7.49;100.00;102050.50;6153141;23;20032;-95
2022/10/27 00:31:22;;;;;;;47.72;44.22;;;;;;;7.30;100.00;102038.28;6153148;23;20058;-94
2022/10/27 00:33:50;;;;;;;44.90;41.27;;;;;;;7.41;100.00;102045.13;6152999;23;20018;-94
2022/10/27 00:36:33;;;;;;;48.20;44.40;;;;;;;7.46;100.00;102056.09;6153296;23;20257;-94
2022/10/27 00:39:02;;;;;;;48.55;44.67;;;;;;;7.46;100.00;102058.72;6153270;23;20058;-94
2022/10/27 00:41:32;;;;;;;45.83;41.85;;;;;;;7.37;100.00;102056.19;6152743;23;20025;-94
2022/10/27 00:44:01;;;;;;;46.25;42.60;;;;;;;7.37;100.00;102045.59;6152763;23;20006;-94
2022/10/27 00:46:40;;;;;;;42.15;38.92;;;;;;;7.22;100.00;102043.50;6153474;23;20018;-94
2022/10/27 00:49:11;;;;;;;43.83;39.88;;;;;;;7.05;100.00;102041.66;6153209;23;20022;-94
2022/10/27 00:51:46;;;;;;;44.20;40.55;;;;;;;7.11;100.00;102049.03;6152431;23;20021;-94
2022/10/27 00:54:19;;;;;;;44.03;40.75;;;;;;;7.04;100.00;102053.22;6153443;23;20034;-95
2022/10/27 00:56:50;;;;;;;40.40;37.20;;;;;;;6.69;100.00;102040.78;6152562;23;20006;-95
2022/10/27 00:59:22;;;;;;;41.13;38.13;;;;;;;6.86;100.00;102048.75;6152610;23;20059;-95
2022/10/27 01:02:15;;;;;;;42.08;39.03;;;;;;;6.97;100.00;102042.44;6151545;23;20005;-94
2022/10/27 01:04:49;;;;;;;42.45;39.17;;;;;;;7.02;100.00;102041.97;6153698;23;20034;-95
2022/10/27 01:07:21;;;;;;;44.47;41.47;;;;;;;6.98;100.00;102041.44;6151303;23;20026;-95
2022/10/27 01:09:53;;;;;;;52.72;48.53;;;;;;;7.03;100.00;102041.00;6148750;23;20057;-94
2022/10/27 01:12:22;;;;;;;47.97;44.45;;;;;;;6.69;100.00;102038.16;6147770;23;20021;-94
2022/10/27 01:17:43;;;;;;;43.63;40.05;;;;;;;6.69;100.00;102035.50;6151088;23;20024;-95
2022/10/27 01:20:46;;;;;;;44.35;41.08;;;;;;;6.51;100.00;102035.50;6149833;23;20033;-93
2022/10/27 01:23:43;;;;;;;41.60;38.15;;;;;;;6.72;100.00;102043.13;6150477;23;20029;-94
2022/10/27 01:26:46;;;;;;;49.75;46.13;;;;;;;6.65;100.00;102051.66;6151355;23;20022;-94
2022/10/27 01:29:52;;;;;;;49.70;45.78;;;;;;;6.59;100.00;102049.59;6149633;23;20029;-94
2022/10/27 01:32:39;;;;;;;49.03;45.53;;;;;;;6.54;100.00;102053.69;6150303;23;20018;-93
2022/10/27 01:35:13;;;;;;;41.78;38.58;;;;;;;6.33;100.00;102044.19;6150061;23;20078;-94
2022/10/27 01:37:50;;;;;;;44.45;41.15;;;;;;;6.07;100.00;102045.81;6149607;23;20018;-94
2022/10/27 01:40:32;;;;;;;47.63;43.85;;;;;;;6.37;100.00;102060.56;6150229;23;20046;-95
2022/10/27 01:43:04;;;;;;;57.78;53.88;;;;;;;6.85;100.00;102057.66;6150034;23;20025;-94
2022/10/27 01:45:36;;;;;;;54.83;51.03;;;;;;;6.51;100.00;102054.81;6150493;23;20029;-94
2022/10/27 01:48:10;;;;;;;52.50;48.00;;;;;;;6.83;100.00;102072.00;6150383;23;20254;-95
2022/10/27 01:50:48;;;;;;;51.63;47.92;;;;;;;6.76;100.00;102069.13;6150059;23;20040;-94
2022/10/27 01:53:16;;;;;;;54.72;50.47;;;;;;;6.66;100.00;102063.06;6150049;23;20170;-94
2022/10/27 01:59:03;;;;;;;50.67;47.38;;;;;;;6.45;100.00;102067.75;6149452;23;20406;-94
2022/10/27 02:01:42;;;;;;;52.38;48.58;;;;;;;6.75;100.00;102077.19;6118309;23;20022;-82
2022/10/27 02:04:19;;;;;;;58.35;52.60;;;;;;;6.79;100.00;102068.00;6096919;23;20054;-79
2022/10/27 02:06:53;;;;;;;53.53;49.28;;;;;;;6.48;100.00;102076.22;6096969;23;20097;-82
2022/10/27 02:09:28;;;;;;;53.95;49.63;;;;;;;6.60;100.00;102082.97;6097319;23;20094;-79
2022/10/27 02:11:57;;;;;;;50.72;46.72;;;;;;;6.72;100.00;102085.38;6097514;23;20030;-79
2022/10/27 02:14:24;;;;;;;45.20;41.80;;;;;;;6.41;100.00;102083.03;6097331;23;20447;-82
2022/10/27 02:16:54;;;;;;;53.65;49.53;;;;;;;6.42;100.00;102090.00;6097013;23;20098;-79
2022/10/27 02:19:27;;;;;;;50.47;46.65;;;;;;;6.46;100.00;102083.44;6097966;23;20090;-79
2022/10/27 02:21:57;;;;;;;51.60;47.83;;;;;;;6.34;100.00;102090.72;6097385;23;20054;-80
2022/10/27 02:24:24;;;;;;;43.30;40.22;;;;;;;6.46;100.00;102101.91;6097031;23;20421;-79
2022/10/27 02:26:56;;;;;;;40.85;37.53;;;;;;;6.16;100.00;102098.53;6096768;23;20097;-80
2022/10/27 02:29:30;;;;;;;45.20;41.80;;;;;;;6.44;100.00;102090.66;6097113;23;20109;-83
2022/10/27 02:32:01;;;;;;;46.40;43.08;;;;;;;6.26;100.00;102102.94;6096516;23;20686;-80
2022/10/27 02:34:31;;;;;;;44.35;40.90;;;;;;;6.27;100.00;102102.81;6097458;23;20101;-80
2022/10/27 02:36:58;;;;;;;43.38;40.03;;;;;;;6.27;100.00;102104.63;6096183;23;20244;-80
2022/10/27 02:39:25;;;;;;;42.00;38.72;;;;;;;6.11;100.00;102108.72;6096741;23;20030;-80
2022/10/27 02:41:52;;;;;;;42.75;39.30;;;;;;;6.06;100.00;102118.00;6096970;23;20034;-81
2022/10/27 02:44:19;;;;;;;38.75;35.75;;;;;;;6.09;100.00;102118.56;6097016;23;20328;-79
2022/10/27 02:46:45;;;;;;;40.88;37.88;;;;;;;6.23;100.00;102117.25;6097958;23;20091;-79
2022/10/27 02:49:12;;;;;;;40.67;37.50;;;;;;;6.24;100.00;102120.75;6098458;23;20539;-81
2022/10/27 02:51:40;;;;;;;44.60;40.97;;;;;;;6.34;100.00;102118.91;6098774;23;20089;-83
2022/10/27 02:54:07;;;;;;;50.53;46.72;;;;;;;6.32;100.00;102126.13;6098492;23;20097;-82
2022/10/27 02:56:34;;;;;;;48.25;44.50;;;;;;;6.23;100.00;102127.81;6098764;23;20030;-83
2022/10/27 02:59:00;;;;;;;53.63;49.75;;;;;;;6.26;100.00;102122.25;6098363;23;20031;-82
2022/10/27 03:01:27;;;;;;;49.08;45.47;;;;;;;6.21;100.00;102126.31;6113043;23;20131;-84
2022/10/27 03:03:54;;;;;;;52.20;48.20;;;;;;;6.17;100.00;102137.16;6127927;23;20026;-80
2022/10/27 03:06:20;;;;;;;49.88;46.13;;;;;;;5.94;100.00;102141.06;6128287;23;20092;-79
2022/10/27 03:08:48;;;;;;;48.55;44.75;;;;;;;5.95;100.00;102153.28;6127804;23;20027;-81
2022/10/27 03:11:15;;;;;;;47.95;44.35;;;;;;;5.92;100.00;102146.44;6127745;23;20447;-81
2022/10/27 03:13:42;;;;;;;47.65;44.30;;;;;;;6.13;100.00;102158.66;6127895;23;20108;-80
2022/10/27 03:16:09;;;;;;;48.70;44.90;;;;;;;6.15;100.00;102159.38;6128023;23;20026;-80
2022/10/27 03:18:35;;;;;;;48.42;44.40;;;;;;;6.00;100.00;102155.50;6127982;23;20018;-84
2022/10/27 03:21:02;;;;;;;45.22;41.75;;;;;;;5.97;100.00;102164.53;6127775;23;20034;-80
2022/10/27 03:23:29;;;;;;;49.25;45.83;;;;;;;6.03;100.00;102160.50;6127553;23;20025;-85
2022/10/27 03:25:58;;;;;;;52.80;48.88;;;;;;;6.01;100.00;102162.44;6127321;23;20022;-81
2022/10/27 03:28:24;;;;;;;57.35;53.33;;;;;;;5.90;100.00;102166.00;6127205;23;20026;-80
2022/10/27 03:30:51;;;;;;;54.08;50.05;;;;;;;5.82;100.00;102168.53;6128088;23;20026;-83
2022/10/27 03:33:18;;;;;;;51.97;48.20;;;;;;;5.92;100.00;102158.81;6128011;23;20375;-82
2022/10/27 03:35:45;;;;;;;48.22;44.75;;;;;;;5.91;100.00;102171.16;6126799;23;20022;-83
2022/10/27 03:38:11;;;;;;;49.28;45.47;;;;;;;5.71;100.00;102169.50;6127375;23;20022;-83
2022/10/27 03:40:39;;;;;;;48.65;45.13;;;;;;;5.49;100.00;102170.59;6127311;23;20036;-83
2022/10/27 03:43:07;;;;;;;46.28;42.90;;;;;;;5.59;100.00;102166.16;6127587;23;20030;-80
2022/10/27 03:45:35;;;;;;;48.78;45.03;;;;;;;5.47;100.00;102168.06;6128001;23;20026;-80
2022/10/27 03:48:02;;;;;;;46.85;43.15;;;;;;;5.15;100.00;102167.50;6127623;23;20041;-80
2022/10/27 03:50:29;;;;;;;49.85;46.33;;;;;;;5.43;100.00;102168.50;6127855;23;20085;-84
2022/10/27 03:52:56;;;;;;;45.13;41.72;;;;;;;5.27;100.00;102172.50;6127729;23;20030;-81
2022/10/27 03:55:24;;;;;;;43.72;40.20;;;;;;;5.43;100.00;102173.78;6127503;23;20435;-82
2022/10/27 03:57:50;;;;;;;40.95;37.92;;;;;;;5.41;100.00;102179.16;6126798;23;20018;-83
2022/10/27 04:00:19;;;;;;;45.40;42.25;;;;;;;5.59;100.00;102174.06;6127306;23;20457;-82
2022/10/27 04:02:46;;;;;;;41.70;38.85;;;;;;;5.46;100.00;102182.22;6127526;23;20467;-80
2022/10/27 04:05:14;;;;;;;43.15;39.95;;;;;;;5.34;100.00;102185.97;6127693;23;20030;-80
2022/10/27 04:07:41;;;;;;;54.88;49.53;;;;;;;5.35;100.00;102187.63;6126715;23;20029;-79
2022/10/27 04:10:08;;;;;;;61.13;56.53;;;;;;;5.20;100.00;102179.25;6126514;23;20447;-80
2022/10/27 04:12:35;;;;;;;45.08;42.00;;;;;;;5.45;100.00;102187.66;6126095;23;20085;-80
2022/10/27 04:15:01;;;;;;;45.95;42.55;;;;;;;5.48;100.00;102190.03;6127362;23;20442;-83
2022/10/27 04:17:29;;;;;;;43.75;40.50;;;;;;;5.60;100.00;102188.94;6126434;23;20080;-79
2022/10/27 04:19:56;;;;;;;45.13;41.97;;;;;;;5.62;100.00;102191.41;6127386;23;20022;-79
2022/10/27 04:22:23;;;;;;;43.33;40.22;;;;;;;5.51;100.00;102195.03;6127663;23;20026;-79
2022/10/27 04:24:50;;;;;;;43.53;40.22;;;;;;;5.48;100.00;102195.28;6127101;23;20088;-80
2022/10/27 04:27:16;;;;;;;68.20;60.83;;;;;;;5.41;100.00;102200.25;6126647;23;20065;-79
2022/10/27 04:29:43;;;;;;;71.13;61.80;;;;;;;5.37;100.00;102201.50;6126885;23;20026;-81
2022/10/27 04:32:10;;;;;;;57.58;51.80;;;;;;;5.43;100.00;102205.41;6127091;23;20100;-82
2022/10/27 04:34:38;;;;;;;50.63;46.35;;;;;;;5.34;100.00;102212.31;6126740;23;20037;-81
2022/10/27 04:37:04;;;;;;;51.67;47.67;;;;;;;5.39;100.00;102207.47;6126437;23;20104;-82
2022/10/27 04:39:31;;;;;;;49.75;44.92;;;;;;;5.37;100.00;102214.66;6127423;23;20376;-79
2022/10/27 04:41:58;;;;;;;45.80;41.90;;;;;;;5.37;100.00;102217.31;6125942;23;20029;-79
2022/10/27 04:44:25;;;;;;;43.85;40.15;;;;;;;5.24;100.00;102219.38;6127168;23;20033;-79
2022/10/27 04:46:51;;;;;;;45.80;41.95;;;;;;;5.36;100.00;102220.91;6126182;23;20093;-83
2022/10/27 04:49:18;;;;;;;48.92;44.28;;;;;;;5.10;100.00;102220.56;6126503;23;20026;-78
2022/10/27 04:51:46;;;;;;;47.63;42.92;;;;;;;5.11;100.00;102216.13;6126697;23;20413;-80
2022/10/27 04:54:13;;;;;;;47.08;41.95;;;;;;;5.11;100.00;102219.56;6126498;23;20026;-82
2022/10/27 04:56:39;;;;;;;50.47;40.55;;;;;;;5.23;100.00;102226.44;6126371;23;20439;-82
2022/10/27 04:59:06;;;;;;;48.35;43.22;;;;;;;5.03;100.00;102233.44;6126243;23;20088;-80
2022/10/27 05:01:33;;;;;;;51.28;46.15;;;;;;;5.08;100.00;102240.91;6122275;23;20029;-79
2022/10/27 05:04:01;;;;;;;49.20;44.55;;;;;;;5.17;100.00;102240.13;6125671;23;20030;-81
2022/10/27 05:06:27;;;;;;;51.25;46.80;;;;;;;5.17;100.00;102245.38;6124773;23;20021;-82
2022/10/27 05:08:55;;;;;;;47.88;43.47;;;;;;;5.30;100.00;102237.28;6126116;23;20026;-83
2022/10/27 05:11:22;;;;;;;46.28;42.10;;;;;;;5.35;100.00;102247.38;6126075;23;20026;-79
2022/10/27 05:13:50;;;;;;;46.28;41.80;;;;;;;5.43;100.00;102250.19;6130720;23;20022;-84
2022/10/27 05:16:18;;;;;;;47.78;43.47;;;;;;;5.58;100.00;102248.84;6130682;23;20018;-79
2022/10/27 05:18:45;;;;;;;48.40;43.85;;;;;;;5.69;100.00;102255.81;6126432;23;20648;-81
2022/10/27 05:21:13;;;;;;;43.83;39.65;;;;;;;5.23;100.00;102251.94;6125669;23;20447;-84
2022/10/27 05:23:40;;;;;;;41.53;37.22;;;;;;;5.01;100.00;102251.16;6126521;23;20022;-79
2022/10/27 05:26:08;;;;;;;51.90;47.05;;;;;;;5.81;100.00;102257.34;6127117;23;20030;-82
2022/10/27 05:28:36;;;;;;;57.20;52.63;;;;;;;6.16;100.00;102269.19;6126599;23;20025;-85
2022/10/27 05:31:03;;;;;;;50.33;45.60;;;;;;;6.10;100.00;102262.66;6126943;23;20109;-82
2022/10/27 05:33:30;;;;;;;56.78;51.55;;;;;;;6.73;100.00;102274.56;6126794;23;20033;-79
2022/10/27 05:35:57;;;;;;;56.58;52.05;;;;;;;7.04;100.00;102272.50;6126658;23;20383;-80
2022/10/27 05:38:23;;;;;;;55.45;50.80;;;;;;;6.98;100.00;102281.84;6126490;23;20077;-79
2022/10/27 05:40:55;;;;;;;55.47;51.08;;;;;;;7.14;100.00;102289.19;6126467;23;20065;-79
2022/10/27 05:43:23;;;;;;;54.58;49.78;;;;;;;7.44;100.00;102288.03;6126487;23;20463;-80
2022/10/27 05:45:51;;;;;;;55.53;51.13;;;;;;;7.57;100.00;102287.72;6127092;23;20443;-82
2022/10/27 05:48:17;;;;;;;49.17;45.67;;;;;;;7.79;100.00;102292.59;6126278;23;20026;-79
2022/10/27 05:50:44;;;;;;;51.10;47.13;;;;;;;7.82;100.00;102296.75;6126579;23;20089;-83
2022/10/27 05:53:12;;;;;;;47.75;44.03;;;;;;;7.75;100.00;102295.69;6126914;23;20018;-83
2022/10/27 05:55:39;;;;;;;52.20;47.80;;;;;;;7.98;100.00;102302.19;6125963;23;20400;-80
2022/10/27 05:58:07;;;;;;;52.75;48.38;;;;;;;8.16;100.00;102310.16;6126117;23;20022;-79
2022/10/27 06:00:37;;;;;;;54.63;49.65;;;;;;;8.21;100.00;102312.34;6126831;23;20030;-80
2022/10/27 06:03:06;;;;;;;49.33;45.60;;;;;;;8.27;100.00;102311.75;6125691;23;20435;-80
2022/10/27 06:05:36;;;;;;;47.65;44.13;;;;;;;8.43;100.00;102317.22;6126055;23;20022;-84
2022/10/27 12:49:44;;;;;;;41.38;38.97;;;;;;;27.74;31.92;102220.47;6119031;23;20032;-85
2022/10/27 12:52:20;;;;;;;41.55;38.60;;;;;;;28.36;31.66;102218.03;6126364;23;20085;-82
2022/10/27 12:55:12;;;;;;;42.75;40.25;;;;;;;29.16;30.82;102222.78;6126166;23;20096;-83
2022/10/27 13:01:11;;;;;;;41.50;38.83;;;;;;;28.61;30.40;102214.19;6064399;23;20116;-82
2022/10/27 13:04:14;;;;;;;40.05;37.45;;;;;;;28.14;31.68;102218.53;6063954;23;20034;-82
2022/10/27 13:07:05;;;;;;;40.30;37.83;;;;;;;28.69;31.97;102215.50;6054634;23;20102;-81
2022/10/27 13:10:01;;;;;;;39.30;36.97;;;;;;;28.54;32.41;102220.03;6061364;23;20026;-81
2022/10/27 13:12:42;;;;;;;40.47;37.78;;;;;;;25.85;35.66;102221.25;6061801;23;20086;-81
2022/10/27 13:15:42;;;;;;;39.50;36.92;;;;;;;26.71;34.30;102222.19;6063957;23;20101;-82
2022/10/27 13:18:18;;;;;;;39.03;36.42;;;;;;;27.76;33.09;102220.22;6064762;23;20058;-84
2022/10/27 13:20:52;;;;;;;42.10;39.17;;;;;;;27.58;32.90;102224.44;6065556;23;20062;-81
2022/10/27 13:23:26;;;;;;;42.72;40.30;;;;;;;27.34;32.15;102218.88;6065783;23;20105;-81
2022/10/27 13:25:57;;;;;;;42.15;39.08;;;;;;;26.09;33.68;102223.41;6064697;23;20559;-84
2022/10/27 13:28:30;;;;;;;40.60;38.05;;;;;;;26.11;34.58;102227.47;6065497;23;20097;-84
2022/10/27 13:31:01;;;;;;;39.40;36.88;;;;;;;26.04;34.89;102221.50;6082903;23;20030;-81
2022/10/27 13:33:35;;;;;;;40.08;37.42;;;;;;;26.52;34.25;102213.81;6125639;23;20372;-82
2022/10/27 13:36:20;;;;;;;38.33;35.47;;;;;;;26.32;34.26;102222.00;6125565;23;20029;-82
2022/10/27 13:38:48;;;;;;;40.30;37.83;;;;;;;25.92;35.11;102227.22;6124211;23;20473;-82
2022/10/27 13:41:49;;;;;;;38.22;35.53;;;;;;;25.34;35.51;102226.63;6125173;23;20459;-82
2022/10/27 13:44:27;;;;;;;37.00;34.55;;;;;;;25.41;35.45;102229.88;6125383;23;20140;-82
2022/10/27 13:47:18;;;;;;;39.25;36.28;;;;;;;25.14;35.77;102224.66;6124448;23;20455;-82
2022/10/27 13:49:52;;;;;;;38.05;35.35;;;;;;;25.82;34.38;102227.25;6124239;23;20085;-84
2022/10/27 13:52:21;;;;;;;36.35;33.72;;;;;;;25.19;35.50;102226.59;6125233;23;20022;-81
2022/10/27 13:55:22;;;;;;;38.70;35.58;;;;;;;25.14;35.46;102232.81;6125300;23;20026;-84
2022/10/27 13:58:13;;;;;;;36.92;33.60;;;;;;;25.56;35.22;102235.34;6125536;23;20085;-81
2022/10/27 14:01:11;;;;;;;37.05;33.67;;;;;;;25.28;36.39;102225.78;6124861;23;20117;-84
2022/10/27 14:04:05;;;;;;;35.50;33.00;;;;;;;25.22;37.78;102232.31;6125129;23;20026;-81
2022/10/27 14:06:36;;;;;;;36.53;34.20;;;;;;;25.13;36.14;102229.28;6125443;23;20030;-81
2022/10/27 14:09:23;;;;;;;37.95;35.50;;;;;;;24.61;36.82;102224.69;6125694;23;20294;-83
2022/10/27 14:11:53;;;;;;;36.15;33.60;;;;;;;24.05;37.76;102229.75;6125396;23;20022;-85
2022/10/27 14:14:24;;;;;;;36.35;33.78;;;;;;;24.46;37.99;102230.06;6126061;23;20036;-80
2022/10/27 14:16:53;;;;;;;40.25;37.55;;;;;;;24.32;38.72;102224.22;6125102;23;20460;-83
2022/10/27 14:19:24;;;;;;;36.38;33.97;;;;;;;23.34;41.14;102239.94;6124872;23;20519;-84
2022/10/27 14:21:53;;;;;;;36.10;33.60;;;;;;;22.38;42.62;102233.81;6125342;23;20030;-80
2022/10/27 14:24:25;;;;;;;36.05;33.65;;;;;;;21.50;45.36;102243.41;6124325;23;20415;-81
2022/10/27 14:26:59;;;;;;;37.90;35.42;;;;;;;21.66;48.35;102233.69;6126395;23;20096;-81
2022/10/27 14:29:26;;;;;;;36.53;34.03;;;;;;;21.00;51.16;102234.06;6125582;23;20096;-81
2022/10/27 14:32:12;;;;;;;37.60;35.20;;;;;;;20.29;57.85;102235.16;6125986;23;20026;-81
2022/10/27 14:34:39;;;;;;;38.05;35.15;;;;;;;19.59;65.44;102231.25;6126134;23;20100;-85
2022/10/27 14:37:16;;;;;;;43.15;40.17;;;;;;;19.07;76.65;102232.78;6126687;23;20444;-81
2022/10/27 14:39:44;;;;;;;41.05;37.55;;;;;;;19.07;80.54;102228.22;6125967;23;20107;-80
2022/10/27 14:42:19;;;;;;;44.03;39.28;;;;;;;18.82;87.27;102235.53;6127422;23;20088;-82
2022/10/27 14:44:52;;;;;;;45.60;41.63;;;;;;;18.30;94.23;102225.88;6127540;23;20100;-84
2022/10/27 14:47:19;;;;;;;44.10;39.97;;;;;;;18.28;98.14;102227.16;6127617;23;20089;-82
2022/10/27 14:49:49;;;;;;;43.80;40.85;;;;;;;18.06;100.00;102240.16;6127652;23;20025;-81
2022/10/27 14:52:20;;;;;;;43.28;39.75;;;;;;;17.92;100.00;102230.56;6127361;23;20027;-80
2022/10/27 14:54:52;;;;;;;44.33;41.33;;;;;;;17.62;100.00;102231.13;6127340;23;20029;-83
2022/10/27 14:57:30;;;;;;;43.53;40.43;;;;;;;17.44;100.00;102237.22;6127261;23;20089;-84
2022/10/27 14:59:57;;;;;;;46.60;42.58;;;;;;;17.27;100.00;102230.69;6127582;23;20018;-82
2022/10/27 15:02:25;;;;;;;46.33;42.70;;;;;;;17.13;100.00;102238.00;6127577;23;20097;-83
2022/10/27 15:04:52;;;;;;;52.65;42.38;;;;;;;16.95;100.00;102233.31;6127527;23;20026;-84
2022/10/27 15:07:20;;;;;;;43.35;40.25;;;;;;;16.85;100.00;102236.44;6127233;23;20092;-82
2022/10/27 15:09:49;;;;;;;42.20;38.83;;;;;;;16.58;100.00;102234.81;6127831;23;20028;-80
2022/10/27 15:12:23;;;;;;;46.78;43.20;;;;;;;16.58;100.00;102245.53;6127816;23;20018;-84
2022/10/27 15:14:53;;;;;;;50.55;47.42;;;;;;;16.30;100.00;102240.41;6128153;23;20088;-80
2022/10/27 15:17:23;;;;;;;47.05;44.15;;;;;;;16.13;100.00;102237.34;6127831;23;20130;-80
2022/10/27 15:19:57;;;;;;;49.22;45.58;;;;;;;15.97;100.00;102238.53;6127759;23;20022;-84
2022/10/27 15:22:24;;;;;;;46.05;42.92;;;;;;;15.94;100.00;102234.41;6127474;23;20034;-84
2022/10/27 15:24:53;;;;;;;46.70;43.53;;;;;;;15.71;100.00;102234.00;6127338;23;20096;-84
2022/10/27 15:27:20;;;;;;;50.22;46.95;;;;;;;15.34;100.00;102244.16;6127423;23;20068;-80
2022/10/27 15:29:50;;;;;;;47.15;43.58;;;;;;;14.96;100.00;102249.13;6128151;23;20026;-80
2022/10/27 15:32:22;;;;;;;55.28;52.30;;;;;;;14.94;100.00;102248.47;6132610;23;20097;-82
2022/10/27 15:34:49;;;;;;;60.33;56.10;;;;;;;14.65;100.00;102255.72;6127404;23;20034;-79
2022/10/27 15:37:28;;;;;;;55.78;51.53;;;;;;;14.46;100.00;102251.00;6127370;23;20084;-80
2022/10/27 15:39:56;;;;;;;57.08;52.60;;;;;;;14.07;100.00;102247.00;6127530;23;20025;-82
2022/10/27 15:42:26;;;;;;;59.85;54.42;;;;;;;14.12;100.00;102247.25;6129638;23;20026;-81
2022/10/27 15:44:53;;;;;;;56.15;51.30;;;;;;;14.19;100.00;102242.78;6130131;23;20022;-81
2022/10/27 15:47:41;;;;;;;56.15;52.00;;;;;;;14.09;100.00;102248.47;6127024;23;20443;-80
2022/10/27 15:50:23;;;;;;;53.28;49.85;;;;;;;13.68;100.00;102256.28;6127200;23;20538;-79
2022/10/27 15:52:52;;;;;;;52.42;48.45;;;;;;;13.64;100.00;102263.00;6126847;23;20101;-81
2022/10/27 15:55:22;;;;;;;62.22;57.85;;;;;;;13.68;100.00;102261.63;6127106;23;20030;-82
2022/10/27 15:57:49;;;;;;;59.10;54.65;;;;;;;13.32;100.00;102272.28;6127659;23;20026;-82
2022/10/27 16:00:21;;;;;;;60.17;55.55;;;;;;;13.14;100.00;102270.81;6127365;23;20088;-80
2022/10/27 16:02:52;;;;;;;69.47;62.38;;;;;;;13.25;100.00;102275.72;6127192;23;20232;-81
2022/10/27 16:05:38;;;;;;;66.43;61.20;;;;;;;13.18;100.00;102284.59;6127123;23;20033;-81
2022/10/27 16:08:38;;;;;;;60.63;55.85;;;;;;;13.03;100.00;102276.59;6126340;23;20050;-80
2022/10/27 16:11:05;;;;;;;95.25;87.50;;;;;;;12.88;100.00;102281.91;6127495;23;20022;-82
2022/10/27 16:13:32;;;;;;;72.38;65.53;;;;;;;12.75;100.00;102282.56;6127723;23;20089;-80
2022/10/27 16:15:59;;;;;;;71.82;64.80;;;;;;;12.59;100.00;102280.88;6132194;23;20026;-81
2022/10/27 16:18:28;;;;;;;67.38;61.47;;;;;;;12.48;100.00;102281.31;6130629;23;20029;-83
2022/10/27 16:20:54;;;;;;;66.40;60.78;;;;;;;12.41;100.00;102287.56;6127499;23;20022;-79
2022/10/27 16:23:22;;;;;;;58.40;53.47;;;;;;;11.78;100.00;102287.63;6127806;23;20089;-82
2022/10/27 16:25:49;;;;;;;59.75;54.28;;;;;;;11.93;100.00;102290.41;6127152;23;20502;-82
2022/10/27 16:28:18;;;;;;;59.78;54.50;;;;;;;12.01;100.00;102287.69;6127196;23;20088;-80
2022/10/27 16:30:45;;;;;;;54.38;49.72;;;;;;;11.98;100.00;102290.72;6127280;23;20085;-81
2022/10/27 16:33:16;;;;;;;56.80;51.88;;;;;;;11.65;100.00;102292.72;6127416;23;20033;-79
2022/10/27 16:35:44;;;;;;;57.30;52.05;;;;;;;11.76;100.00;102294.13;6126778;23;20025;-82
2022/10/27 16:38:11;;;;;;;59.25;53.95;;;;;;;11.95;100.00;102293.69;6125636;23;20443;-81
2022/10/27 16:40:39;;;;;;;60.20;54.85;;;;;;;11.62;100.00;102293.06;6123661;23;20021;-80
2022/10/27 16:43:15;;;;;;;62.55;56.25;;;;;;;11.49;100.00;102300.75;6127086;23;20312;-83
2022/10/27 16:45:42;;;;;;;60.25;55.00;;;;;;;11.24;100.00;102314.97;6126275;23;20093;-79
2022/10/27 16:48:12;;;;;;;62.75;56.85;;;;;;;11.23;100.00;102312.50;6126379;23;20426;-83
2022/10/27 16:50:39;;;;;;;62.85;56.83;;;;;;;11.03;100.00;102314.72;6126172;23;20398;-79
2022/10/27 16:53:08;;;;;;;62.30;57.10;;;;;;;10.96;100.00;102313.75;6126521;23;20034;-79
2022/10/27 16:55:35;;;;;;;53.10;49.47;;;;;;;10.52;100.00;102325.56;6126685;23;20518;-79
2022/10/27 16:58:02;;;;;;;54.97;50.65;;;;;;;10.99;100.00;102318.72;6126095;23;20025;-82
2022/10/27 17:00:28;;;;;;;50.13;46.72;;;;;;;11.16;100.00;102319.50;6085736;23;20403;-79
2022/10/27 17:02:55;;;;;;;49.03;45.90;;;;;;;10.76;100.00;102323.91;6125313;23;20317;-80
2022/10/27 17:05:22;;;;;;;48.88;45.75;;;;;;;10.55;100.00;102322.56;6125641;23;20030;-80
2022/10/27 17:07:49;;;;;;;51.20;48.10;;;;;;;10.70;100.00;102324.56;6126058;23;20022;-81
2022/10/27 17:10:17;;;;;;;48.58;45.67;;;;;;;10.75;100.00;102331.03;6126245;23;20470;-79
2022/10/27 17:12:44;;;;;;;48.35;45.05;;;;;;;10.51;100.00;102326.56;6125749;23;20021;-80
2022/10/27 17:15:11;;;;;;;47.35;44.25;;;;;;;10.41;100.00;102331.22;6126659;23;20340;-82
2022/10/27 17:17:37;;;;;;;46.00;43.00;;;;;;;10.17;100.00;102328.53;6126452;23;20392;-80
2022/10/27 17:20:05;;;;;;;42.03;38.00;;;;;;;9.58;100.00;102337.28;6125804;23;20474;-79
2022/10/27 17:22:32;;;;;;;41.03;38.08;;;;;;;9.97;100.00;102330.63;6126074;23;20022;-81
2022/10/27 17:24:58;;;;;;;41.30;37.92;;;;;;;9.99;100.00;102328.66;6125697;23;20092;-84
2022/10/27 17:27:26;;;;;;;41.28;38.67;;;;;;;9.89;100.00;102339.38;6125965;23;20033;-83
2022/10/27 17:29:53;;;;;;;42.03;39.42;;;;;;;10.23;100.00;102333.19;6126349;23;20097;-81
2022/10/27 17:32:20;;;;;;;41.50;38.80;;;;;;;10.25;100.00;102339.97;6125516;23;20045;-81
2022/10/27 17:34:47;;;;;;;41.17;38.55;;;;;;;9.27;100.00;102344.13;6124946;23;20026;-79
2022/10/27 17:37:13;;;;;;;43.45;40.63;;;;;;;9.86;100.00;102339.72;6125574;23;20022;-83
2022/10/27 17:39:40;;;;;;;44.88;41.45;;;;;;;9.98;100.00;102343.72;6126088;23;20447;-83
2022/10/27 17:42:08;;;;;;;45.13;41.55;;;;;;;9.71;100.00;102341.31;6125622;23;20029;-82
2022/10/27 17:44:36;;;;;;;47.13;43.47;;;;;;;9.68;100.00;102341.63;6125716;23;20030;-81
2022/10/27 17:47:03;;;;;;;48.40;44.25;;;;;;;9.74;100.00;102333.03;6125772;23;20037;-83
2022/10/27 17:49:29;;;;;;;48.15;43.47;;;;;;;9.31;100.00;102345.47;6125090;23;20026;-83
2022/10/27 17:51:56;;;;;;;47.28;43.70;;;;;;;9.30;100.00;102344.63;6125721;23;20026;-80
2022/10/27 17:54:23;;;;;;;59.53;54.50;;;;;;;9.61;100.00;102344.09;6125641;23;20026;-80
2022/10/27 17:56:50;;;;;;;59.72;54.35;;;;;;;9.57;100.00;102350.72;6125619;23;20092;-80
2022/10/27 17:59:18;;;;;;;62.60;57.38;;;;;;;9.42;100.00;102342.53;6125675;23;20029;-80
2022/10/27 18:01:48;;;;;;;58.53;53.72;;;;;;;9.30;100.00;102341.97;6125442;23;20097;-85
2022/10/27 18:04:15;;;;;;;60.15;55.55;;;;;;;9.34;100.00;102351.28;6126194;23;20103;-80
2022/10/27 18:06:42;;;;;;;61.17;56.38;;;;;;;9.40;100.00;102363.91;6125870;23;20030;-84
2022/10/27 18:09:10;;;;;;;60.75;55.67;;;;;;;8.75;100.00;102344.13;6126163;23;20022;-81
2022/10/27 18:11:38;;;;;;;63.22;56.92;;;;;;;9.00;100.00;102355.72;6126417;23;20105;-81
2022/10/27 18:14:07;;;;;;;53.50;48.67;;;;;;;8.93;100.00;102351.03;6125853;23;20026;-81
2022/10/27 18:16:35;;;;;;;49.00;45.38;;;;;;;9.00;100.00;102356.56;6126748;23;20053;-83
2022/10/27 18:19:05;;;;;;;51.33;47.28;;;;;;;9.13;100.00;102350.81;6127881;23;20029;-80